Time;durP1;ratioP1;P1;durP2;ratioP2;P2;SDS_P1;SDS_P2;PMS_P1;PMS_P2;Temp;Humidity;BMP_temperature;BMP_pressure;BME280_temperature;BME280_humidity;BME280_pressure;Samples;Min_cycle;Max_cycle;Signal;HPM_P1;HPM_P2
2022/02/19 00:01:02;;;;;;;3.90;3.50;;;9.50;54.50;;;;;;5063677;28;20613;-55
2022/02/19 00:03:28;;;;;;;3.87;3.67;;;9.50;54.50;;;;;;5061478;28;20460;-57
2022/02/19 00:05:53;;;;;;;5.57;3.80;;;9.50;55.60;;;;;;5058497;28;20199;-54
2022/02/19 00:08:20;;;;;;;4.93;3.30;;;9.40;54.50;;;;;;5056494;28;20181;-53
2022/02/19 00:10:46;;;;;;;4.07;3.77;;;9.40;55.10;;;;;;5059468;28;20198;-56
2022/02/19 00:13:12;;;;;;;3.20;3.00;;;9.40;54.10;;;;;;5050104;28;20475;-54
2022/02/19 00:15:37;;;;;;;4.03;3.60;;;9.40;53.90;;;;;;5051546;28;20236;-59
2022/02/19 00:18:03;;;;;;;3.80;3.60;;;9.40;53.80;;;;;;5060852;28;20193;-50
2022/02/19 00:20:30;;;;;;;3.50;3.30;;;9.40;54.30;;;;;;5050874;28;20177;-56
2022/02/19 00:22:56;;;;;;;4.40;4.00;;;9.40;54.40;;;;;;5052206;28;20429;-62
2022/02/19 00:25:22;;;;;;;4.67;4.33;;;9.40;53.00;;;;;;5051420;28;20468;-56
2022/02/19 00:27:48;;;;;;;4.30;4.00;;;9.40;53.80;;;;;;5054329;28;20965;-56
2022/02/19 00:30:13;;;;;;;4.07;3.77;;;9.30;52.80;;;;;;5065705;28;20557;-54
2022/02/19 00:32:39;;;;;;;5.00;3.57;;;9.30;53.60;;;;;;5055845;28;20186;-57
2022/02/19 00:35:05;;;;;;;4.00;3.70;;;9.20;52.80;;;;;;5065698;28;20718;-52
2022/02/19 00:37:31;;;;;;;3.80;3.60;;;9.20;53.40;;;;;;5057813;28;20638;-59
2022/02/19 00:39:56;;;;;;;3.80;3.60;;;9.20;51.70;;;;;;5065869;28;20186;-54
2022/02/19 00:42:22;;;;;;;4.13;3.63;;;9.20;51.40;;;;;;5059237;28;20838;-55
2022/02/19 00:44:47;;;;;;;3.80;3.60;;;9.20;51.80;;;;;;5051511;28;20210;-57
2022/02/19 00:47:14;;;;;;;3.93;3.73;;;9.10;51.70;;;;;;5057348;28;20216;-57
2022/02/19 00:49:40;;;;;;;4.20;3.90;;;9.10;52.70;;;;;;5051526;28;20197;-53
2022/02/19 00:52:06;;;;;;;4.30;4.00;;;9.00;52.00;;;;;;5057524;28;20428;-55
2022/02/19 00:54:31;;;;;;;3.90;3.70;;;9.00;52.40;;;;;;5069484;28;20254;-57
2022/02/19 00:56:57;;;;;;;4.07;3.77;;;8.90;52.80;;;;;;5057018;28;20481;-55
2022/02/19 00:59:22;;;;;;;3.93;3.67;;;8.90;51.10;;;;;;5070070;28;20186;-56
2022/02/19 01:01:48;;;;;;;4.17;3.87;;;8.90;50.80;;;;;;5050559;28;20269;-55
2022/02/19 01:04:14;;;;;;;4.33;3.97;;;8.90;50.50;;;;;;5050584;28;20220;-53
2022/02/19 01:06:39;;;;;;;4.13;3.70;;;8.80;50.90;;;;;;5050263;28;20183;-63
2022/02/19 01:09:05;;;;;;;4.30;4.00;;;8.80;51.20;;;;;;5062419;28;20208;-58
2022/02/19 01:11:31;;;;;;;3.50;3.37;;;8.80;49.90;;;;;;5049553;28;20590;-54
2022/02/19 01:13:56;;;;;;;3.57;3.27;;;8.80;50.00;;;;;;5060881;28;20208;-53
2022/02/19 01:16:22;;;;;;;4.20;3.90;;;8.80;49.10;;;;;;5054589;28;20248;-54
2022/02/19 01:18:48;;;;;;;4.07;3.63;;;8.80;50.00;;;;;;5053039;28;20215;-54
2022/02/19 01:21:17;;;;;;;3.53;3.23;;;8.80;49.20;;;;;;5046678;28;20471;-56
2022/02/19 01:23:43;;;;;;;3.40;3.20;;;8.80;50.00;;;;;;5061099;28;20251;-56
2022/02/19 01:26:09;;;;;;;4.07;3.67;;;8.80;48.70;;;;;;5057024;28;20807;-51
2022/02/19 01:28:34;;;;;;;4.40;3.63;;;8.70;50.20;;;;;;5049661;28;20947;-55
2022/02/19 01:31:00;;;;;;;3.90;3.60;;;8.70;50.10;;;;;;5056312;28;20645;-61
2022/02/19 01:33:26;;;;;;;6.23;3.93;;;8.70;49.40;;;;;;5050058;28;20196;-55
2022/02/19 01:35:52;;;;;;;4.10;3.80;;;8.60;50.30;;;;;;5049684;28;20548;-57
2022/02/19 01:38:18;;;;;;;3.80;3.43;;;8.60;51.10;;;;;;5042534;28;20207;-54
2022/02/19 01:40:44;;;;;;;5.70;4.27;;;8.60;52.10;;;;;;5057866;28;20424;-55
2022/02/19 01:43:10;;;;;;;4.00;3.60;;;8.60;52.80;;;;;;5049130;28;20630;-56
2022/02/19 01:45:37;;;;;;;3.87;3.67;;;8.50;52.60;;;;;;5050019;28;20425;-58
2022/02/19 01:48:03;;;;;;;4.40;4.00;;;8.50;53.10;;;;;;5049298;28;20483;-54
2022/02/19 01:50:28;;;;;;;4.70;4.00;;;8.50;53.50;;;;;;5060204;28;20935;-55
2022/02/19 01:52:54;;;;;;;4.27;3.70;;;8.50;54.70;;;;;;5056766;28;20248;-52
2022/02/19 01:55:20;;;;;;;3.60;3.33;;;8.50;53.50;;;;;;5058924;28;20221;-56
2022/02/19 01:57:47;;;;;;;4.00;3.70;;;8.40;52.80;;;;;;5049234;28;20444;-56
2022/02/19 02:00:14;;;;;;;3.77;3.57;;;8.50;52.00;;;;;;5050545;28;20516;-55
2022/02/19 02:02:43;;;;;;;6.50;3.70;;;8.50;51.50;;;;;;5047871;28;21001;-53
2022/02/19 02:05:09;;;;;;;4.60;4.10;;;8.50;51.40;;;;;;5051769;28;20498;-54
2022/02/19 02:07:35;;;;;;;3.93;3.60;;;8.50;51.60;;;;;;5053921;28;20438;-56
2022/02/19 02:10:01;;;;;;;6.17;3.60;;;8.40;51.10;;;;;;5059424;28;20425;-54
2022/02/19 02:12:27;;;;;;;3.60;3.30;;;8.40;51.80;;;;;;5067379;28;20465;-53
2022/02/19 02:14:52;;;;;;;3.57;3.37;;;8.40;50.60;;;;;;5060006;28;20444;-55
2022/02/19 02:17:18;;;;;;;4.70;3.63;;;8.40;51.30;;;;;;5060458;28;20205;-55
2022/02/19 02:19:43;;;;;;;3.80;3.50;;;8.40;51.00;;;;;;5051369;28;20771;-55
2022/02/19 02:22:11;;;;;;;4.43;3.57;;;8.30;51.40;;;;;;5067488;28;20178;-53
2022/02/19 02:24:37;;;;;;;3.33;2.97;;;8.40;51.10;;;;;;5053399;28;20264;-53
2022/02/19 02:27:07;;;;;;;3.83;3.60;;;8.40;50.70;;;;;;5051020;28;20440;-52
2022/02/19 02:29:39;;;;;;;3.80;3.50;;;8.30;51.70;;;;;;5053464;28;20536;-56
2022/02/19 02:32:05;;;;;;;4.57;3.57;;;8.30;51.00;;;;;;5054147;28;20496;-58
2022/02/19 02:34:30;;;;;;;3.80;3.50;;;8.30;51.00;;;;;;5051670;28;20858;-56
2022/02/19 02:36:56;;;;;;;4.00;3.70;;;8.30;51.20;;;;;;5058289;28;20460;-63
2022/02/19 02:39:21;;;;;;;5.33;3.60;;;8.30;50.90;;;;;;5062266;28;20315;-53
2022/02/19 02:41:47;;;;;;;4.27;3.87;;;8.30;51.70;;;;;;5066929;28;20273;-62
2022/02/19 02:44:13;;;;;;;4.10;3.50;;;8.20;52.60;;;;;;5058956;28;20237;-54
2022/02/19 02:46:39;;;;;;;4.40;4.00;;;8.20;53.10;;;;;;5057289;28;20564;-55
2022/02/19 02:49:04;;;;;;;4.50;3.17;;;8.20;52.70;;;;;;5052880;28;20463;-59
2022/02/19 02:51:31;;;;;;;3.60;3.40;;;8.20;52.90;;;;;;5065831;28;20177;-55
2022/02/19 02:53:56;;;;;;;3.50;3.30;;;8.20;52.90;;;;;;5053212;28;20691;-54
2022/02/19 02:56:22;;;;;;;6.67;3.80;;;8.20;53.20;;;;;;5053003;28;20440;-57
2022/02/19 02:58:47;;;;;;;8.93;3.60;;;8.20;52.90;;;;;;5052894;28;20182;-54
2022/02/19 03:01:13;;;;;;;3.80;3.50;;;8.20;53.30;;;;;;5058682;28;20197;-53
2022/02/19 03:03:39;;;;;;;4.30;3.90;;;8.20;54.40;;;;;;5052457;28;20205;-56
2022/02/19 03:06:04;;;;;;;4.03;3.40;;;8.10;54.10;;;;;;5055762;28;20575;-60
2022/02/19 03:08:30;;;;;;;3.90;3.60;;;8.10;54.80;;;;;;5052848;28;20179;-56
2022/02/19 03:10:56;;;;;;;4.47;4.17;;;8.10;55.00;;;;;;5061492;28;20174;-54
2022/02/19 03:13:21;;;;;;;3.70;3.50;;;8.00;55.50;;;;;;5063864;28;20574;-55
2022/02/19 03:15:47;;;;;;;3.80;3.50;;;8.10;55.50;;;;;;5055174;28;20174;-53
2022/02/19 03:18:12;;;;;;;3.83;3.53;;;8.00;54.80;;;;;;5051385;28;20193;-56
2022/02/19 03:20:39;;;;;;;3.93;3.63;;;8.00;55.40;;;;;;5065757;28;20181;-54
2022/02/19 03:23:06;;;;;;;3.80;3.60;;;8.00;55.60;;;;;;5061876;28;20702;-56
2022/02/19 03:25:32;;;;;;;3.97;3.43;;;7.90;56.10;;;;;;5051428;28;20436;-54
2022/02/19 03:27:58;;;;;;;4.27;3.83;;;8.00;56.80;;;;;;5052277;28;20498;-55
2022/02/19 03:30:23;;;;;;;6.40;4.27;;;7.90;57.50;;;;;;5064950;28;20465;-54
2022/02/19 03:32:49;;;;;;;4.80;3.00;;;7.90;58.30;;;;;;5051884;28;20780;-57
2022/02/19 03:35:15;;;;;;;3.77;3.47;;;7.90;58.90;;;;;;5056043;28;20186;-53
2022/02/19 03:37:41;;;;;;;3.53;3.33;;;7.90;58.50;;;;;;5058812;28;20225;-59
2022/02/19 03:40:08;;;;;;;5.67;3.80;;;7.80;58.30;;;;;;5063688;28;20570;-56
2022/02/19 03:42:35;;;;;;;3.50;3.30;;;7.80;55.90;;;;;;5059967;28;20239;-55
2022/02/19 03:45:02;;;;;;;9.63;3.97;;;7.70;56.10;;;;;;5056572;28;20476;-54
2022/02/19 03:47:28;;;;;;;3.87;3.50;;;7.70;56.00;;;;;;5056479;28;20428;-56
2022/02/19 03:49:53;;;;;;;3.70;3.40;;;7.70;56.30;;;;;;5072148;28;20408;-57
2022/02/19 03:52:19;;;;;;;3.60;3.30;;;7.60;56.00;;;;;;5052511;28;20214;-54
2022/02/19 03:54:44;;;;;;;3.60;3.30;;;7.60;56.40;;;;;;5062067;28;20217;-55
2022/02/19 03:57:10;;;;;;;3.50;3.30;;;7.50;56.70;;;;;;5069982;28;20551;-53
2022/02/19 03:59:35;;;;;;;4.07;3.77;;;7.50;57.10;;;;;;5054017;28;20186;-53
2022/02/19 04:02:01;;;;;;;3.20;2.90;;;7.50;57.30;;;;;;5054159;28;20247;-52
2022/02/19 04:04:26;;;;;;;3.67;3.43;;;7.40;57.20;;;;;;5050374;28;20202;-53
2022/02/19 04:06:52;;;;;;;3.80;3.60;;;7.30;57.30;;;;;;5050759;28;20174;-54
2022/02/19 04:09:17;;;;;;;3.50;3.30;;;7.30;57.60;;;;;;5050832;28;20265;-53
2022/02/19 04:11:43;;;;;;;3.80;3.27;;;7.30;57.50;;;;;;5051552;28;20171;-55
2022/02/19 04:14:08;;;;;;;3.40;3.30;;;7.30;57.30;;;;;;5051679;28;20179;-55
2022/02/19 04:16:34;;;;;;;4.37;3.33;;;7.30;57.20;;;;;;5051569;28;20265;-56
2022/02/19 04:18:59;;;;;;;3.57;3.30;;;7.30;56.90;;;;;;5051689;28;20171;-56
2022/02/19 04:21:25;;;;;;;3.47;3.17;;;7.30;57.80;;;;;;5050518;28;20543;-55
2022/02/19 04:23:52;;;;;;;3.20;3.07;;;7.30;57.50;;;;;;5051551;28;20198;-56
2022/02/19 04:26:18;;;;;;;4.00;3.70;;;7.30;57.90;;;;;;5051665;28;20151;-51
2022/02/19 04:28:43;;;;;;;3.43;3.23;;;7.20;57.90;;;;;;5051345;28;20417;-57
2022/02/19 04:31:09;;;;;;;4.50;3.17;;;7.30;58.50;;;;;;5051482;28;20166;-56
2022/02/19 04:33:34;;;;;;;4.97;3.17;;;7.20;57.90;;;;;;5051322;28;20663;-56
2022/02/19 04:36:00;;;;;;;4.20;3.50;;;7.20;58.00;;;;;;5048767;28;20186;-55
2022/02/19 04:38:25;;;;;;;3.50;3.20;;;7.20;58.10;;;;;;5051404;28;20178;-50
2022/02/19 04:40:51;;;;;;;3.00;2.80;;;7.20;57.90;;;;;;5056498;28;20193;-55
2022/02/19 04:43:17;;;;;;;3.20;3.00;;;7.20;57.50;;;;;;5059311;28;20174;-62
2022/02/19 04:45:42;;;;;;;4.33;3.43;;;7.20;57.60;;;;;;5050082;28;20443;-54
2022/02/19 04:48:09;;;;;;;3.33;3.00;;;7.20;57.80;;;;;;5049916;28;20186;-55
2022/02/19 04:50:34;;;;;;;3.67;3.37;;;7.20;58.00;;;;;;5051101;28;20252;-54
2022/02/19 04:53:00;;;;;;;7.47;3.57;;;7.20;59.40;;;;;;5050879;28;20507;-53
2022/02/19 04:55:25;;;;;;;3.27;3.07;;;7.10;58.90;;;;;;5050652;28;20954;-54
2022/02/19 04:57:51;;;;;;;4.43;3.30;;;7.10;59.70;;;;;;5050849;28;20244;-57
2022/02/19 05:00:18;;;;;;;4.03;2.87;;;7.00;59.90;;;;;;5050539;28;20186;-56
2022/02/19 05:02:44;;;;;;;3.85;3.38;;;7.00;60.00;;;;;;5048482;28;20202;-53
2022/02/19 05:05:10;;;;;;;5.00;2.97;;;7.00;59.90;;;;;;5050621;28;20256;-53
2022/02/19 05:07:37;;;;;;;3.00;2.80;;;7.00;59.30;;;;;;5050026;28;20178;-57
2022/02/19 05:10:04;;;;;;;3.10;2.85;;;7.00;59.30;;;;;;5050256;28;20800;-54
2022/02/19 05:12:30;;;;;;;2.75;2.65;;;7.00;60.90;;;;;;5051972;28;20201;-54
2022/02/19 05:14:55;;;;;;;3.40;3.10;;;6.90;59.70;;;;;;5054887;28;20178;-53
2022/02/19 05:17:21;;;;;;;4.50;2.93;;;6.90;59.70;;;;;;5050282;28;20435;-53
2022/02/19 05:19:47;;;;;;;3.33;3.10;;;6.90;60.20;;;;;;5060540;28;20188;-51
2022/02/19 05:22:12;;;;;;;3.60;2.80;;;6.90;59.40;;;;;;5056547;28;20200;-54
2022/02/19 05:24:38;;;;;;;3.60;2.90;;;6.90;60.00;;;;;;5059026;28;20302;-51
2022/02/19 05:27:03;;;;;;;3.53;3.17;;;6.80;60.40;;;;;;5049990;28;20182;-54
2022/02/19 05:29:29;;;;;;;3.10;2.60;;;6.80;60.20;;;;;;5050564;28;20640;-53
2022/02/19 05:31:54;;;;;;;3.23;2.97;;;6.80;60.20;;;;;;5047953;28;20692;-56
2022/02/19 05:34:20;;;;;;;3.07;2.80;;;6.80;60.60;;;;;;5050442;28;20273;-56
2022/02/19 05:36:46;;;;;;;2.73;2.53;;;6.80;59.80;;;;;;5049886;28;21234;-52
2022/02/19 05:39:11;;;;;;;3.00;2.80;;;6.80;60.20;;;;;;5048960;28;20671;-55
2022/02/19 05:41:37;;;;;;;3.53;3.00;;;6.80;59.50;;;;;;5049197;28;20235;-51
2022/02/19 05:44:06;;;;;;;2.80;2.60;;;6.80;59.00;;;;;;5050070;28;20213;-58
2022/02/19 05:46:33;;;;;;;2.83;2.65;;;6.80;58.90;;;;;;5049269;28;20236;-54
2022/02/19 05:48:59;;;;;;;3.10;2.90;;;6.80;58.70;;;;;;5050275;28;20258;-53
2022/02/19 05:51:25;;;;;;;3.00;2.70;;;6.80;59.20;;;;;;5049114;28;20174;-58
2022/02/19 05:53:50;;;;;;;3.50;3.20;;;6.70;59.70;;;;;;5048160;28;20321;-54
2022/02/19 05:56:16;;;;;;;3.70;3.37;;;6.60;59.00;;;;;;5049151;28;20182;-54
2022/02/19 05:58:43;;;;;;;3.73;3.30;;;6.70;59.20;;;;;;5049323;28;20259;-54
2022/02/19 06:01:09;;;;;;;5.60;3.30;;;6.60;58.90;;;;;;5048073;28;20591;-53
2022/02/19 06:03:35;;;;;;;3.03;2.83;;;6.60;58.90;;;;;;5049182;28;20201;-50
2022/02/19 06:06:01;;;;;;;2.63;2.53;;;6.60;59.10;;;;;;5047740;28;20432;-55
2022/02/19 06:08:26;;;;;;;3.33;3.03;;;6.70;59.00;;;;;;5049574;28;20519;-55
2022/02/19 06:10:52;;;;;;;3.30;3.00;;;6.70;58.40;;;;;;5050241;28;20633;-56
2022/02/19 06:13:17;;;;;;;2.70;2.60;;;6.70;59.30;;;;;;5063212;28;20205;-54
2022/02/19 06:15:43;;;;;;;3.00;2.90;;;6.70;58.90;;;;;;5049715;28;20182;-52
2022/02/19 06:18:09;;;;;;;2.90;2.70;;;6.70;59.10;;;;;;5048871;28;20185;-61
2022/02/19 06:20:34;;;;;;;2.70;2.50;;;6.70;59.60;;;;;;5049243;28;20197;-56
2022/02/19 06:23:00;;;;;;;3.30;3.00;;;6.70;59.60;;;;;;5049222;28;20221;-56
2022/02/19 06:25:26;;;;;;;2.90;2.70;;;6.70;59.30;;;;;;5048998;28;20313;-50
2022/02/19 06:27:51;;;;;;;3.37;3.17;;;6.70;59.50;;;;;;5045995;28;20178;-50
2022/02/19 06:30:17;;;;;;;3.27;2.93;;;6.60;58.90;;;;;;5049322;28;20239;-55
2022/02/19 06:32:43;;;;;;;3.97;3.57;;;6.70;58.70;;;;;;5051836;28;20181;-53
2022/02/19 06:35:09;;;;;;;3.90;3.17;;;6.70;58.50;;;;;;5046821;28;20199;-55
2022/02/19 06:37:42;;;;;;;3.20;2.90;;;6.70;58.20;;;;;;5064124;28;20182;-50
2022/02/19 06:40:10;;;;;;;3.10;2.90;;;6.80;58.80;;;;;;5049830;28;20185;-53
2022/02/19 06:42:36;;;;;;;3.95;2.80;;;6.80;58.10;;;;;;5053502;28;20954;-56
2022/02/19 06:45:04;;;;;;;2.83;2.67;;;6.80;58.20;;;;;;5062688;28;20264;-52
2022/02/19 06:47:30;;;;;;;3.05;2.80;;;6.80;58.30;;;;;;5051808;28;20186;-58
2022/02/19 06:49:56;;;;;;;3.33;3.00;;;6.80;57.80;;;;;;5049479;28;20918;-55
2022/02/19 06:52:21;;;;;;;3.20;3.00;;;6.80;57.70;;;;;;5050096;28;20210;-62
2022/02/19 06:54:47;;;;;;;3.43;3.23;;;6.80;58.30;;;;;;5046839;28;20244;-53
2022/02/19 06:57:14;;;;;;;3.13;2.83;;;6.80;58.20;;;;;;5048026;28;20581;-56
2022/02/19 06:59:43;;;;;;;3.95;3.75;;;6.80;57.60;;;;;;5049369;28;20212;-51
2022/02/19 07:02:09;;;;;;;3.45;2.60;;;6.90;57.80;;;;;;5047559;28;20226;-54
2022/02/19 07:04:34;;;;;;;3.10;2.90;;;6.90;57.00;;;;;;5065254;28;20252;-52
2022/02/19 07:07:00;;;;;;;3.03;2.83;;;6.90;57.40;;;;;;5055272;28;20440;-53
2022/02/19 07:09:27;;;;;;;2.87;2.77;;;6.90;57.90;;;;;;5064959;28;20258;-55
2022/02/19 07:11:56;;;;;;;5.00;3.20;;;6.90;57.40;;;;;;5042393;28;20181;-53
2022/02/19 07:14:22;;;;;;;2.88;2.67;;;6.90;57.90;;;;;;5051747;28;20471;-54
2022/02/19 07:16:47;;;;;;;3.38;3.08;;;6.80;58.40;;;;;;5053792;28;20174;-52
2022/02/19 07:19:13;;;;;;;3.00;2.80;;;6.90;58.50;;;;;;5052633;28;20190;-53
2022/02/19 07:21:39;;;;;;;2.80;2.47;;;6.80;58.70;;;;;;5057349;28;20190;-55
2022/02/19 07:24:06;;;;;;;3.20;3.00;;;6.90;58.90;;;;;;5054599;28;20468;-54
2022/02/19 07:26:32;;;;;;;3.20;2.90;;;6.90;59.40;;;;;;5046660;28;20190;-54
2022/02/19 07:28:57;;;;;;;3.17;2.70;;;6.90;59.50;;;;;;5054055;28;20424;-53
2022/02/19 07:31:23;;;;;;;3.73;2.50;;;6.90;59.20;;;;;;5062893;28;20437;-53
2022/02/19 07:33:49;;;;;;;3.00;2.80;;;6.90;59.70;;;;;;5048496;28;20553;-50
2022/02/19 07:36:14;;;;;;;3.73;2.93;;;6.90;59.00;;;;;;5048251;28;20586;-57
2022/02/19 07:38:40;;;;;;;3.30;3.00;;;6.90;59.60;;;;;;5048900;28;20243;-56
2022/02/19 07:41:06;;;;;;;3.00;2.80;;;7.00;59.60;;;;;;5049604;28;20939;-54
2022/02/19 07:43:31;;;;;;;3.10;2.80;;;7.00;61.30;;;;;;5047388;28;20218;-55
2022/02/19 07:45:58;;;;;;;2.70;2.60;;;7.10;60.70;;;;;;5050157;28;20284;-52
2022/02/19 07:48:24;;;;;;;2.92;2.72;;;7.10;60.40;;;;;;5045172;28;20296;-53
2022/02/19 07:59:02;;;;;;;2.65;2.50;;;7.20;60.00;;;;;;5057179;28;20221;-56
2022/02/19 08:01:27;;;;;;;2.80;2.60;;;7.20;61.60;;;;;;5064219;28;20213;-55
2022/02/19 08:03:53;;;;;;;2.83;2.63;;;7.40;61.90;;;;;;5059258;28;20243;-58
2022/02/19 08:06:19;;;;;;;3.20;3.00;;;7.50;60.80;;;;;;5048872;28;20206;-56
2022/02/19 08:08:44;;;;;;;4.83;3.20;;;7.50;60.20;;;;;;5048731;28;20179;-54
2022/02/19 08:11:10;;;;;;;3.10;2.80;;;7.60;60.40;;;;;;5050930;28;20185;-55
2022/02/19 08:13:35;;;;;;;2.73;2.60;;;7.70;59.40;;;;;;5060045;28;20190;-62
2022/02/19 08:16:01;;;;;;;2.80;2.60;;;7.90;58.80;;;;;;5054945;28;20235;-55
2022/02/19 08:18:27;;;;;;;3.60;3.30;;;8.00;58.80;;;;;;5061720;28;20182;-57
2022/02/19 08:20:53;;;;;;;3.43;3.13;;;8.40;57.80;;;;;;5064188;28;20189;-56
2022/02/19 08:23:21;;;;;;;3.37;3.07;;;8.70;56.50;;;;;;5059342;28;20189;-54
2022/02/19 08:25:47;;;;;;;3.50;3.20;;;8.80;55.90;;;;;;5071272;28;20418;-53
2022/02/19 08:28:13;;;;;;;3.23;3.03;;;9.00;55.80;;;;;;5059258;28;20425;-55
2022/02/19 08:30:41;;;;;;;3.30;3.00;;;9.00;53.00;;;;;;5051464;28;20888;-55
2022/02/19 08:33:08;;;;;;;3.07;2.80;;;9.20;54.40;;;;;;5051234;28;20749;-55
2022/02/19 08:35:34;;;;;;;2.90;2.80;;;9.30;53.70;;;;;;5050657;28;20437;-53
2022/02/19 08:38:00;;;;;;;3.60;3.40;;;9.50;52.50;;;;;;5051345;28;20412;-57
2022/02/19 08:40:26;;;;;;;3.30;3.00;;;9.40;53.20;;;;;;5050895;28;20438;-53
2022/02/19 08:42:52;;;;;;;3.30;3.00;;;9.50;52.20;;;;;;5051238;28;20429;-54
2022/02/19 08:45:18;;;;;;;2.67;2.57;;;9.70;52.20;;;;;;5050640;28;20934;-52
2022/02/19 08:47:45;;;;;;;5.03;3.20;;;9.50;51.90;;;;;;5051240;28;20812;-56
2022/02/19 08:50:12;;;;;;;3.23;3.00;;;9.70;51.50;;;;;;5051316;28;20427;-55
2022/02/19 08:52:42;;;;;;;3.67;2.80;;;9.80;51.30;;;;;;5050984;28;20460;-54
2022/02/19 08:55:09;;;;;;;3.33;3.13;;;10.00;50.20;;;;;;5051051;28;20942;-52
2022/02/19 08:57:35;;;;;;;3.33;3.10;;;10.00;48.60;;;;;;5050668;28;20429;-56
2022/02/19 09:00:02;;;;;;;3.50;3.17;;;9.90;50.20;;;;;;5051101;28;20716;-54
2022/02/19 09:02:28;;;;;;;3.23;3.03;;;9.80;49.30;;;;;;5050477;28;20966;-55
2022/02/19 09:04:53;;;;;;;3.40;3.10;;;9.90;49.00;;;;;;5050361;28;20448;-56
2022/02/19 09:07:19;;;;;;;3.33;3.10;;;9.90;48.60;;;;;;5050544;28;20687;-54
2022/02/19 09:09:46;;;;;;;3.27;3.07;;;10.00;48.40;;;;;;5050795;28;20190;-58
2022/02/19 09:12:12;;;;;;;3.60;3.40;;;10.30;47.50;;;;;;5050623;28;20170;-55
2022/02/19 09:14:38;;;;;;;3.60;3.30;;;10.40;46.20;;;;;;5050765;28;20423;-61
2022/02/19 09:17:04;;;;;;;3.13;3.03;;;10.30;46.20;;;;;;5056783;28;20196;-53
2022/02/19 09:19:29;;;;;;;3.70;3.33;;;10.40;46.00;;;;;;5055410;28;20193;-53
2022/02/19 09:21:55;;;;;;;3.40;3.10;;;10.70;45.90;;;;;;5054964;28;20224;-54
2022/02/19 09:24:20;;;;;;;3.33;2.80;;;10.90;44.80;;;;;;5066300;28;20951;-59
2022/02/19 09:26:46;;;;;;;2.87;2.77;;;10.90;44.70;;;;;;5069858;28;20220;-57
2022/02/19 09:29:11;;;;;;;3.47;3.23;;;10.70;45.20;;;;;;5069721;28;20253;-52
2022/02/19 09:31:38;;;;;;;3.43;3.33;;;11.00;45.20;;;;;;5070369;28;20486;-55
2022/02/19 09:34:03;;;;;;;3.60;3.30;;;11.00;44.60;;;;;;5054616;28;20649;-54
2022/02/19 09:36:29;;;;;;;3.37;3.17;;;10.70;43.90;;;;;;5062443;28;20452;-53
2022/02/19 09:38:54;;;;;;;3.43;3.23;;;10.70;43.70;;;;;;5050327;28;20233;-53
2022/02/19 09:41:20;;;;;;;3.20;3.00;;;10.80;43.60;;;;;;5062974;28;20250;-53
2022/02/19 09:43:46;;;;;;;3.10;2.90;;;10.60;43.80;;;;;;5061676;28;20213;-52
2022/02/19 09:46:14;;;;;;;3.40;3.20;;;10.70;43.70;;;;;;5068046;28;20841;-53
2022/02/19 09:48:42;;;;;;;3.30;3.10;;;10.80;43.60;;;;;;5060403;28;20240;-55
2022/02/19 09:51:10;;;;;;;3.17;3.07;;;11.00;43.30;;;;;;5070128;28;20424;-53
2022/02/19 09:53:37;;;;;;;3.40;3.20;;;11.10;43.50;;;;;;5057965;28;20471;-54
2022/02/19 09:56:03;;;;;;;3.20;3.00;;;11.20;43.10;;;;;;5053697;28;20504;-55
2022/02/19 09:58:30;;;;;;;3.97;3.30;;;11.30;42.60;;;;;;5057583;28;20829;-62
2022/02/19 10:01:14;;;;;;;3.50;3.20;;;11.30;41.80;;;;;;5070094;28;20423;-54
2022/02/19 10:03:39;;;;;;;3.80;3.50;;;11.30;42.40;;;;;;5040576;28;20456;-56
2022/02/19 10:06:12;;;;;;;3.70;3.40;;;11.80;42.60;;;;;;5050687;28;20467;-58
2022/02/19 10:08:37;;;;;;;3.70;3.40;;;12.00;40.90;;;;;;5057155;28;20181;-52
2022/02/19 10:11:04;;;;;;;3.27;2.53;;;11.80;41.00;;;;;;5065638;28;20786;-50
2022/02/19 10:13:38;;;;;;;3.37;3.17;;;11.20;41.60;;;;;;5070067;28;20472;-55
2022/02/19 10:16:06;;;;;;;3.30;3.10;;;11.40;43.00;;;;;;5049846;28;20504;-62
2022/02/19 10:18:53;;;;;;;4.57;4.23;;;11.40;42.10;;;;;;5061629;28;20423;-55
2022/02/19 10:21:20;;;;;;;3.40;3.30;;;11.40;42.20;;;;;;5066589;28;20488;-57
2022/02/19 10:23:51;;;;;;;3.63;3.43;;;11.90;41.30;;;;;;5060254;28;20465;-57
2022/02/19 10:26:20;;;;;;;3.67;3.40;;;12.00;40.60;;;;;;5050429;28;20489;-54
2022/02/19 10:29:09;;;;;;;3.43;3.23;;;11.70;40.10;;;;;;5062751;28;20558;-57
2022/02/19 10:31:35;;;;;;;3.80;3.50;;;11.70;40.20;;;;;;5044619;28;21255;-57
2022/02/19 10:34:08;;;;;;;3.20;3.00;;;11.30;40.20;;;;;;5045104;28;21333;-56
2022/02/19 10:36:52;;;;;;;3.50;3.30;;;10.80;40.50;;;;;;5051725;28;20433;-55
2022/02/19 10:39:29;;;;;;;3.60;3.40;;;10.80;41.40;;;;;;5043894;28;20416;-56
2022/02/19 10:41:57;;;;;;;2.90;2.70;;;11.00;41.30;;;;;;5033832;28;21461;-59
2022/02/19 10:44:28;;;;;;;4.13;3.03;;;11.20;41.60;;;;;;5054298;28;20558;-56
2022/02/19 10:46:56;;;;;;;3.60;3.30;;;11.40;42.00;;;;;;5055453;28;20436;-56
2022/02/19 10:49:23;;;;;;;3.40;3.20;;;11.90;40.30;;;;;;5044301;28;21535;-54
2022/02/19 10:51:48;;;;;;;3.83;3.53;;;12.40;40.40;;;;;;5045858;28;20803;-54
2022/02/19 10:54:20;;;;;;;3.30;3.10;;;12.70;39.90;;;;;;5042947;28;20499;-55
2022/02/19 10:56:45;;;;;;;3.90;3.50;;;12.50;39.10;;;;;;5046797;28;20190;-53
2022/02/19 10:59:13;;;;;;;3.20;3.10;;;12.30;40.00;;;;;;5047286;28;20471;-57
2022/02/19 11:01:39;;;;;;;3.77;3.30;;;12.00;39.30;;;;;;5044037;28;20182;-54
2022/02/19 11:04:07;;;;;;;3.60;3.40;;;11.60;40.60;;;;;;5044813;28;20467;-55
2022/02/19 11:06:34;;;;;;;3.47;3.27;;;11.80;40.70;;;;;;5045020;28;21285;-54
2022/02/19 11:09:02;;;;;;;3.73;3.43;;;11.80;40.00;;;;;;5044477;28;21187;-56
2022/02/19 11:11:28;;;;;;;3.73;3.53;;;11.90;40.10;;;;;;5061880;28;20419;-56
2022/02/19 11:13:55;;;;;;;3.33;3.13;;;11.70;39.70;;;;;;5051314;28;20534;-53
2022/02/19 11:16:23;;;;;;;3.03;2.80;;;11.60;41.20;;;;;;5042650;28;20433;-53
2022/02/19 11:18:49;;;;;;;3.30;3.10;;;11.80;40.60;;;;;;5048320;28;20420;-56
2022/02/19 11:21:16;;;;;;;3.93;3.63;;;11.70;40.40;;;;;;5050087;28;20831;-59
2022/02/19 11:23:45;;;;;;;3.47;3.27;;;12.00;40.00;;;;;;5052653;28;20486;-52
2022/02/19 11:26:11;;;;;;;3.20;2.90;;;12.20;39.00;;;;;;5050833;28;20433;-56
2022/02/19 11:28:37;;;;;;;3.77;3.40;;;12.50;38.70;;;;;;5049578;28;20448;-54
2022/02/19 11:31:08;;;;;;;3.30;3.10;;;12.40;37.70;;;;;;5053395;28;20755;-56
2022/02/19 11:33:36;;;;;;;3.50;3.30;;;12.40;39.20;;;;;;5051796;28;20413;-55
2022/02/19 11:36:07;;;;;;;3.70;3.40;;;11.90;38.60;;;;;;5051842;28;20428;-51
2022/02/19 11:38:47;;;;;;;4.87;3.27;;;11.90;40.80;;;;;;5049333;28;20472;-53
2022/02/19 11:41:15;;;;;;;3.27;3.07;;;11.70;40.30;;;;;;5048563;28;21200;-55
2022/02/19 11:43:47;;;;;;;3.43;3.23;;;11.20;40.60;;;;;;5053628;28;20468;-56
2022/02/19 11:46:16;;;;;;;3.60;3.33;;;10.80;42.20;;;;;;5054371;28;20451;-56
2022/02/19 11:48:44;;;;;;;3.80;3.50;;;10.90;42.40;;;;;;5052367;28;20839;-55
2022/02/19 11:51:19;;;;;;;3.70;3.40;;;11.20;42.70;;;;;;5057506;28;20424;-53
2022/02/19 11:53:50;;;;;;;3.30;3.10;;;11.70;42.10;;;;;;5049981;28;20487;-55
2022/02/19 11:56:45;;;;;;;3.80;3.50;;;11.60;41.10;;;;;;5051718;28;20570;-52
2022/02/19 11:59:12;;;;;;;3.73;3.43;;;11.50;41.70;;;;;;5057544;28;21027;-61
2022/02/19 12:01:40;;;;;;;3.50;3.27;;;11.90;41.70;;;;;;5066006;28;20425;-54
2022/02/19 12:04:13;;;;;;;3.73;3.43;;;12.20;41.60;;;;;;5047173;28;20472;-57
2022/02/19 12:06:42;;;;;;;3.00;2.70;;;11.80;41.10;;;;;;5048313;28;20432;-54
2022/02/19 12:09:18;;;;;;;3.20;3.00;;;11.30;42.10;;;;;;5048203;28;20869;-52
2022/02/19 12:11:55;;;;;;;5.60;3.17;;;10.70;41.90;;;;;;5044598;28;20454;-54
2022/02/19 12:14:39;;;;;;;3.60;3.30;;;10.30;43.50;;;;;;5058795;28;20440;-53
2022/02/19 12:17:09;;;;;;;3.20;3.00;;;9.80;44.90;;;;;;5050428;28;20451;-56
2022/02/19 12:19:56;;;;;;;2.90;2.70;;;9.60;46.70;;;;;;5048872;28;20931;-55
2022/02/19 12:22:52;;;;;;;3.77;3.17;;;9.20;45.90;;;;;;5049630;28;20433;-52
2022/02/19 12:25:18;;;;;;;3.50;3.20;;;9.00;45.90;;;;;;5063260;28;20810;-52
2022/02/19 12:27:44;;;;;;;3.50;3.30;;;8.70;46.50;;;;;;5064035;28;20424;-54
2022/02/19 12:30:20;;;;;;;3.43;3.13;;;8.70;47.70;;;;;;5058530;28;20564;-52
2022/02/19 12:32:48;;;;;;;3.23;3.00;;;8.70;47.80;;;;;;5060975;28;20478;-51
2022/02/19 12:35:14;;;;;;;3.60;3.30;;;8.70;47.20;;;;;;5059449;28;20419;-51
2022/02/19 12:37:39;;;;;;;3.53;3.27;;;8.70;47.70;;;;;;5053545;28;20432;-52
2022/02/19 12:40:05;;;;;;;3.90;3.50;;;8.60;48.80;;;;;;5060555;28;20289;-52
2022/02/19 12:42:32;;;;;;;3.73;3.47;;;8.50;49.20;;;;;;5056297;28;21325;-56
2022/02/19 12:45:08;;;;;;;3.60;3.30;;;8.50;50.00;;;;;;5049554;28;20460;-58
2022/02/19 12:47:35;;;;;;;3.30;3.10;;;8.70;50.00;;;;;;5046056;28;20451;-55
2022/02/19 12:50:03;;;;;;;3.20;3.00;;;8.80;49.30;;;;;;5059945;28;20422;-53
2022/02/19 12:52:28;;;;;;;3.10;2.90;;;8.80;48.80;;;;;;5054880;28;20500;-56
2022/02/19 12:54:54;;;;;;;3.60;3.30;;;8.90;47.80;;;;;;5047903;28;20469;-54
2022/02/19 12:57:22;;;;;;;3.47;3.20;;;9.10;47.20;;;;;;5049231;28;20193;-56
2022/02/19 12:59:50;;;;;;;3.50;3.30;;;9.20;47.40;;;;;;5046541;28;20447;-56
2022/02/19 13:02:18;;;;;;;4.30;3.43;;;9.80;46.50;;;;;;5063551;28;20902;-55